Terminal Aerodrome Forecast
Issued by NWS Albany, NY

Home | Current Version | Previous Version | Text Only | Print | Product List | Glossary On
Versions: 1 2 3 4 5 6 7 8 9 10 11 12 13 14 15 16 17
000
FTUS41 KALY 262322
TAFPOU
TAF
KPOU 262322Z 2700/2724 19004KT P6SM VCSH FEW040
     FM270100 19005KT P6SM SCT020 BKN040
     FM271400 20008G15KT P6SM BKN050
     FM271800 19010G20KT P6SM -SHRA BKN045=

USA.gov is the U.S. government's official web portal to all federal, state and local government web resources and services.